createdAt,value
2023-05-19T00:00:33.569Z,98863.63
2023-05-19T00:01:37.790Z,98854.75
2023-05-19T00:02:40.002Z,98864.66
2023-05-19T00:03:52.749Z,98865.47
2023-05-19T00:04:55.135Z,98864.66
2023-05-19T00:07:01.458Z,98856.22
2023-05-19T00:08:03.976Z,98852.19
2023-05-19T00:09:07.735Z,98858.88
2023-05-19T00:10:10.398Z,98849.88
2023-05-19T00:11:12.326Z,98853.56
2023-05-19T00:12:14.529Z,98864.19
2023-05-19T00:13:16.559Z,98860.50
2023-05-19T00:14:18.633Z,98859.47
2023-05-19T00:15:20.710Z,98857.03
2023-05-19T00:16:23.865Z,98857.59
2023-05-19T00:17:26.062Z,98860.84
2023-05-19T00:18:29.929Z,98870.19
2023-05-19T00:19:32.509Z,98857.59
2023-05-19T00:20:34.642Z,98857.38
2023-05-19T00:21:38.351Z,98867.78
2023-05-19T00:22:40.522Z,98864.31
2023-05-19T00:23:42.487Z,98860.63
2023-05-19T00:24:44.297Z,98860.84
2023-05-19T00:25:46.071Z,98853.34
2023-05-19T00:26:47.820Z,98855.28
2023-05-19T00:27:49.607Z,98851.59
2023-05-19T00:28:51.376Z,98866.97
2023-05-19T00:29:53.157Z,98843.41
2023-05-19T00:30:55.130Z,98855.19
2023-05-19T00:31:56.936Z,98856.00
2023-05-19T00:32:58.814Z,98862.91
2023-05-19T00:34:01.038Z,98851.13
2023-05-19T00:35:02.834Z,98851.25
2023-05-19T00:36:05.932Z,98856.22
2023-05-19T00:37:07.725Z,98851.94
2023-05-19T00:38:09.472Z,98849.88
2023-05-19T00:39:11.303Z,98853.56
2023-05-19T00:40:13.445Z,98848.72
2023-05-19T00:41:15.229Z,98848.13
2023-05-19T00:42:17.092Z,98848.47
2023-05-19T00:43:18.867Z,98847.91
2023-05-19T00:44:20.629Z,98856.09
2023-05-19T00:45:22.464Z,98856.91
2023-05-19T00:46:24.459Z,98848.94
2023-05-19T00:47:26.326Z,98848.72
2023-05-19T00:48:28.217Z,98840.97
2023-05-19T00:49:29.977Z,98847.09
2023-05-19T00:50:32.135Z,98844.69
2023-05-19T00:51:34.182Z,98839.03
2023-05-19T00:52:36.041Z,98844.94
2023-05-19T00:53:37.823Z,98847.81
2023-05-19T00:54:39.632Z,98843.53
2023-05-19T00:55:42.204Z,98839.03
2023-05-19T00:56:44.049Z,98833.38
2023-05-19T00:57:47.152Z,98842.72
2023-05-19T00:58:51.599Z,98838.56
2023-05-19T00:59:53.433Z,98832.44
2023-05-19T01:01:03.120Z,98838.56
2023-05-19T01:02:05.110Z,98844.13
2023-05-19T01:03:13.388Z,98836.94
2023-05-19T01:04:22.127Z,98824.59
2023-05-19T01:05:23.988Z,98848.03
2023-05-19T01:06:27.893Z,98830.47
2023-05-19T01:07:30.266Z,98833.13
2023-05-19T01:08:33.214Z,98839.50
2023-05-19T01:09:35.069Z,98833.13
2023-05-19T01:10:37.063Z,98840.66
2023-05-19T01:11:38.854Z,98840.66
2023-05-19T01:12:41.256Z,98839.38
2023-05-19T01:13:43.913Z,98843.88
2023-05-19T01:14:45.719Z,98847.09
2023-05-19T01:16:21.539Z,98845.47
2023-05-19T01:17:26.633Z,98845.25
2023-05-19T01:18:51.069Z,98839.69
2023-05-19T01:20:19.233Z,98833.25
2023-05-19T01:21:44.545Z,98840.97
2023-05-19T01:23:16.902Z,98827.69
2023-05-19T01:24:46.932Z,98842.25
2023-05-19T01:26:00.999Z,98838.00
2023-05-19T01:27:08.769Z,98843.88
2023-05-19T01:28:25.206Z,98833.25
2023-05-19T01:30:08.814Z,98835.66
2023-05-19T01:31:12.736Z,98832.75
2023-05-19T01:32:19.923Z,98830.59
2023-05-19T01:33:23.848Z,98837.84
2023-05-19T01:34:27.508Z,98833.34
2023-05-19T01:35:31.017Z,98829.88
2023-05-19T01:36:33.929Z,98834.72
2023-05-19T01:37:37.673Z,98828.03
2023-05-19T01:38:40.327Z,98834.72
2023-05-19T01:39:45.300Z,98818.34
2023-05-19T01:40:49.694Z,98836.34
2023-05-19T01:41:52.568Z,98837.72
2023-05-19T01:42:57.692Z,98827.56
2023-05-19T01:44:00.605Z,98841.75
2023-05-19T01:45:03.351Z,98840.38
2023-05-19T01:46:05.804Z,98836.19
2023-05-19T01:47:08.158Z,98839.91
2023-05-19T01:48:11.301Z,98839.44
2023-05-19T01:49:13.780Z,98840.00
2023-05-19T01:50:15.893Z,98835.97
2023-05-19T01:51:17.636Z,98837.00
2023-05-19T01:52:19.511Z,98840.00
2023-05-19T01:53:21.367Z,98845.09
2023-05-19T01:54:23.377Z,98844.28
2023-05-19T01:55:25.794Z,98848.78
2023-05-19T01:56:41.502Z,98840.59
2023-05-19T01:58:17.290Z,98852.03
2023-05-19T01:59:37.364Z,98842.09
2023-05-19T02:00:58.822Z,98847.97
2023-05-19T02:02:05.965Z,98845.31
2023-05-19T02:03:07.742Z,98852.25
2023-05-19T02:04:15.430Z,98849.38
2023-05-19T02:05:38.453Z,98851.22
2023-05-19T02:06:49.899Z,98849.13
2023-05-19T02:08:00.525Z,98856.06
2023-05-19T02:09:16.175Z,98861.94
2023-05-19T02:10:28.227Z,98846.72
2023-05-19T02:11:38.618Z,98859.28
2023-05-19T02:12:41.600Z,98856.63
2023-05-19T02:13:49.325Z,98853.97
2023-05-19T02:15:13.469Z,98853.97
2023-05-19T02:16:17.762Z,98853.97
2023-05-19T02:17:20.998Z,98846.47
2023-05-19T02:18:25.213Z,98853.72
2023-05-19T02:19:34.051Z,98865.75
2023-05-19T02:20:35.808Z,98854.06
2023-05-19T02:21:37.553Z,98859.63
2023-05-19T02:22:40.552Z,98862.28
2023-05-19T02:23:42.322Z,98854.88
2023-05-19T02:24:46.652Z,98859.97
2023-05-19T02:25:48.789Z,98859.97
2023-05-19T02:26:52.071Z,98860.78
2023-05-19T02:27:54.947Z,98852.81
2023-05-19T02:28:56.684Z,98860.53
2023-05-19T02:29:58.465Z,98859.00
2023-05-19T02:31:00.228Z,98855.06
2023-05-19T02:32:02.354Z,98853.22
2023-05-19T02:33:06.645Z,98857.88
2023-05-19T02:34:08.848Z,98862.75
2023-05-19T02:35:10.641Z,98863.28
2023-05-19T02:36:14.588Z,98859.00
2023-05-19T02:37:17.857Z,98871.84
2023-05-19T02:38:19.601Z,98865.47
2023-05-19T02:39:21.397Z,98855.88
2023-05-19T02:40:23.414Z,98863.84
2023-05-19T02:41:25.151Z,98864.44
2023-05-19T02:42:26.900Z,98857.16
2023-05-19T02:43:30.665Z,98862.25
2023-05-19T02:44:32.451Z,98866.28
2023-05-19T02:45:34.242Z,98862.00
2023-05-19T02:46:36.404Z,98854.25
2023-05-19T02:47:38.515Z,98870.78
2023-05-19T02:48:40.268Z,98862.81
2023-05-19T02:49:43.153Z,98851.59
2023-05-19T02:50:44.980Z,98863.84
2023-05-19T02:51:46.708Z,98848.53
2023-05-19T02:52:48.443Z,98867.78
2023-05-19T02:53:50.506Z,98862.25
2023-05-19T02:54:52.279Z,98865.13
2023-05-19T02:55:54.088Z,98868.06
2023-05-19T02:56:56.009Z,98859.50
2023-05-19T02:57:57.773Z,98847.72
2023-05-19T02:58:59.692Z,98862.41
2023-05-19T03:00:02.058Z,98860.53
2023-05-19T03:01:04.418Z,98858.47
2023-05-19T03:02:06.328Z,98855.81
2023-05-19T03:03:10.487Z,98865.94
2023-05-19T03:04:14.111Z,98866.75
2023-05-19T03:05:15.933Z,98863.78
2023-05-19T03:06:18.222Z,98858.47
2023-05-19T03:07:25.308Z,98860.31
2023-05-19T03:08:27.237Z,98864.25
2023-05-19T03:09:29.008Z,98864.59
2023-05-19T03:10:31.169Z,98870.13
2023-05-19T03:11:33.186Z,98860.44
2023-05-19T03:12:35.117Z,98863.19
2023-05-19T03:13:36.858Z,98874.66
2023-05-19T03:14:38.849Z,98872.22
2023-05-19T03:15:42.626Z,98873.25
2023-05-19T03:16:44.529Z,98881.25
2023-05-19T03:17:46.401Z,98870.59
2023-05-19T03:18:48.267Z,98865.28
2023-05-19T03:19:51.311Z,98869.78
2023-05-19T03:20:54.166Z,98873.50
2023-05-19T03:21:56.641Z,98880.19
2023-05-19T03:22:58.943Z,98884.47
2023-05-19T03:24:01.397Z,98870.59
2023-05-19T03:25:03.560Z,98873.84
2023-05-19T03:26:05.574Z,98869.09
2023-05-19T03:27:07.369Z,98877.53
2023-05-19T03:28:09.106Z,98865.16
2023-05-19T03:29:10.907Z,98873.50
2023-05-19T03:30:13.257Z,98877.53
2023-05-19T03:31:15.020Z,98882.28
2023-05-19T03:32:16.849Z,98880.88
2023-05-19T03:33:18.791Z,98884.38
2023-05-19T03:34:22.537Z,98885.75
2023-05-19T03:35:24.290Z,98895.34
2023-05-19T03:36:32.146Z,98872.13
2023-05-19T03:37:34.124Z,98892.91
2023-05-19T03:38:36.044Z,98883.66
2023-05-19T03:39:37.848Z,98883.31
2023-05-19T03:40:39.622Z,98890.59
2023-05-19T03:41:41.355Z,98898.34
2023-05-19T03:42:43.080Z,98894.31
2023-05-19T03:43:44.819Z,98899.38
2023-05-19T03:44:46.723Z,98902.63
2023-05-19T03:45:48.585Z,98889.56
2023-05-19T03:46:50.411Z,98884.00
2023-05-19T03:47:52.214Z,98885.28
2023-05-19T03:48:53.977Z,98884.25
2023-05-19T03:49:56.189Z,98886.31
2023-05-19T03:50:58.213Z,98884.47
2023-05-19T03:51:59.994Z,98886.91
2023-05-19T03:53:01.705Z,98891.41
2023-05-19T03:54:04.613Z,98893.56
2023-05-19T03:55:07.233Z,98889.31
2023-05-19T03:56:11.800Z,98893.56
2023-05-19T03:57:14.743Z,98895.44
2023-05-19T03:58:16.793Z,98902.63
2023-05-19T03:59:18.562Z,98898.66
2023-05-19T04:00:20.500Z,98899.47
2023-05-19T04:01:22.470Z,98892.06
2023-05-19T04:02:24.278Z,98896.59
2023-05-19T04:03:26.395Z,98895.19
2023-05-19T04:04:28.709Z,98911.50
2023-05-19T04:05:30.512Z,98907.00
2023-05-19T04:06:32.242Z,98898.66
2023-05-19T04:07:34.114Z,98909.66
2023-05-19T04:08:35.873Z,98905.38
2023-05-19T04:09:37.796Z,98911.59
2023-05-19T04:10:39.618Z,98903.28
2023-05-19T04:11:42.590Z,98912.72
2023-05-19T04:12:44.488Z,98905.78
2023-05-19T04:13:46.251Z,98910.66
2023-05-19T04:14:48.005Z,98912.50
2023-05-19T04:15:49.956Z,98897.81
2023-05-19T04:16:52.334Z,98905.44
2023-05-19T04:17:54.245Z,98901.75
2023-05-19T04:18:56.961Z,98905.78
2023-05-19T04:19:58.751Z,98898.84
2023-05-19T04:21:00.655Z,98904.72
2023-05-19T04:22:02.438Z,98896.72
2023-05-19T04:23:04.309Z,98900.19
2023-05-19T04:24:06.754Z,98894.22
2023-05-19T04:25:09.079Z,98907.72
2023-05-19T04:26:10.836Z,98900.78
2023-05-19T04:27:12.914Z,98907.00
2023-05-19T04:28:18.124Z,98910.47
2023-05-19T04:29:19.902Z,98909.66
2023-05-19T04:30:22.776Z,98904.34
2023-05-19T04:31:25.033Z,98888.09
2023-05-19T04:32:26.982Z,98920.88
2023-05-19T04:33:29.325Z,98900.06
2023-05-19T04:34:31.044Z,98918.78
2023-05-19T04:35:32.882Z,98911.13
2023-05-19T04:36:34.641Z,98912.97
2023-05-19T04:37:37.984Z,98912.50
2023-05-19T04:38:40.153Z,98926.50
2023-05-19T04:39:46.587Z,98915.84
2023-05-19T04:40:50.473Z,98923.38
2023-05-19T04:41:54.240Z,98929.91
2023-05-19T04:42:56.007Z,98937.13
2023-05-19T04:44:00.570Z,98936.84
2023-05-19T04:45:05.486Z,98946.69
2023-05-19T04:46:12.312Z,98935.16
2023-05-19T04:47:15.567Z,98933.44
2023-05-19T04:48:17.332Z,98937.63
2023-05-19T04:49:19.580Z,98936.44
2023-05-19T04:50:21.897Z,98933.50
2023-05-19T04:51:29.843Z,98938.94
2023-05-19T04:52:32.301Z,98935.84
2023-05-19T04:53:34.082Z,98923.91
2023-05-19T04:54:35.851Z,98931.91
2023-05-19T04:55:38.845Z,98928.63
2023-05-19T04:56:40.673Z,98942.78
2023-05-19T04:57:42.919Z,98930.66
2023-05-19T04:58:44.920Z,98930.50
2023-05-19T04:59:46.754Z,98926.41
2023-05-19T05:00:48.502Z,98928.13
2023-05-19T05:01:50.412Z,98930.34
2023-05-19T05:02:52.248Z,98927.50
2023-05-19T05:03:55.433Z,98934.06
2023-05-19T05:04:58.175Z,98943.81
2023-05-19T05:06:02.810Z,98934.50
2023-05-19T05:07:04.688Z,98940.69
2023-05-19T05:08:07.228Z,98937.06
2023-05-19T05:09:08.995Z,98937.19
2023-05-19T05:10:10.998Z,98943.97
2023-05-19T05:11:13.042Z,98943.53
2023-05-19T05:12:15.816Z,98948.94
2023-05-19T05:13:17.848Z,98944.38
2023-05-19T05:14:19.878Z,98951.94
2023-05-19T05:15:24.471Z,98952.75
2023-05-19T05:16:26.829Z,98942.03
2023-05-19T05:17:28.985Z,98944.19
2023-05-19T05:18:31.095Z,98945.03
2023-05-19T05:19:33.215Z,98956.03
2023-05-19T05:20:35.330Z,98951.53
2023-05-19T05:21:37.486Z,98945.34
2023-05-19T05:22:39.617Z,98954.47
2023-05-19T05:23:41.660Z,98952.09
2023-05-19T05:24:43.738Z,98955.56
2023-05-19T05:25:47.050Z,98960.66
2023-05-19T05:26:49.066Z,98957.97
2023-05-19T05:27:50.888Z,98952.59
2023-05-19T05:28:52.700Z,98949.91
2023-05-19T05:29:54.444Z,98961.44
2023-05-19T05:30:57.501Z,98952.84
2023-05-19T05:31:59.424Z,98958.75
2023-05-19T05:33:02.223Z,98956.63
2023-05-19T05:34:04.188Z,98966.81
2023-05-19T05:35:06.539Z,98967.91
2023-05-19T05:36:08.661Z,98970.03
2023-05-19T05:37:11.376Z,98962.78
2023-05-19T05:38:14.336Z,98958.72
2023-05-19T05:39:16.222Z,98969.44
2023-05-19T05:40:18.149Z,98955.25
2023-05-19T05:41:19.941Z,98972.94
2023-05-19T05:42:21.703Z,98971.84
2023-05-19T05:43:23.500Z,98970.53
2023-05-19T05:44:25.378Z,98959.53
2023-05-19T05:45:27.201Z,98969.44
2023-05-19T05:46:29.193Z,98969.91
2023-05-19T05:47:31.388Z,98975.19
2023-05-19T05:48:33.503Z,98965.78
2023-05-19T05:49:39.282Z,98975.16
2023-05-19T05:50:44.363Z,98970.81
2023-05-19T05:51:57.877Z,98964.78
2023-05-19T05:53:07.589Z,98963.69
2023-05-19T05:54:12.373Z,98966.00
2023-05-19T05:55:15.376Z,98966.19
2023-05-19T05:56:17.465Z,98971.53
2023-05-19T05:57:19.587Z,98964.47
2023-05-19T05:58:21.417Z,98957.00
2023-05-19T05:59:23.300Z,98966.44
2023-05-19T06:00:25.235Z,98971.97
2023-05-19T06:01:26.981Z,98960.47
2023-05-19T06:02:30.155Z,98963.91
2023-05-19T06:03:32.233Z,98964.63
2023-05-19T06:04:34.104Z,98974.16
2023-05-19T06:05:36.250Z,98974.47
2023-05-19T06:06:38.288Z,98982.56
2023-05-19T06:07:41.323Z,98970.28
2023-05-19T06:08:43.116Z,98979.66
2023-05-19T06:09:44.869Z,98984.78
2023-05-19T06:10:47.472Z,98989.59
2023-05-19T06:11:49.351Z,98985.84
2023-05-19T06:12:51.094Z,99000.81
2023-05-19T06:13:52.870Z,98981.78
2023-05-19T06:14:54.715Z,98985.56
2023-05-19T06:15:56.498Z,98996.00
2023-05-19T06:16:58.350Z,98999.22
2023-05-19T06:18:00.258Z,99002.34
2023-05-19T06:19:02.299Z,98994.50
2023-05-19T06:20:08.707Z,99001.72
2023-05-19T06:21:10.625Z,99004.94
2023-05-19T06:22:12.420Z,98989.53
2023-05-19T06:23:14.232Z,98998.03
2023-05-19T06:24:15.967Z,99000.34
2023-05-19T06:25:17.906Z,98995.38
2023-05-19T06:26:19.648Z,98998.16
2023-05-19T06:27:21.449Z,98975.28
2023-05-19T06:28:23.258Z,99002.78
2023-05-19T06:29:25.088Z,99009.22
2023-05-19T06:30:26.830Z,99006.47
2023-05-19T06:31:29.058Z,99003.25
2023-05-19T06:32:31.014Z,99009.06
2023-05-19T06:33:32.791Z,99001.97
2023-05-19T06:34:34.540Z,99004.81
2023-05-19T06:35:36.307Z,99012.28
2023-05-19T06:36:38.128Z,99014.69
2023-05-19T06:37:39.951Z,99016.44
2023-05-19T06:38:41.693Z,99013.31
2023-05-19T06:39:43.456Z,99017.63
2023-05-19T06:40:45.231Z,99021.41
2023-05-19T06:41:48.329Z,99013.94
2023-05-19T06:42:50.589Z,99012.78
2023-05-19T06:43:52.634Z,99017.31
2023-05-19T06:44:56.602Z,99016.75
2023-05-19T06:45:58.851Z,99016.56
2023-05-19T06:47:00.826Z,99012.44
2023-05-19T06:48:03.098Z,99012.88
2023-05-19T06:49:04.886Z,99012.22
2023-05-19T06:50:06.953Z,99016.78
2023-05-19T06:51:10.349Z,99010.94
2023-05-19T06:52:12.456Z,99017.00
2023-05-19T06:53:14.275Z,99015.22
2023-05-19T06:54:16.425Z,99016.31
2023-05-19T06:55:21.282Z,99019.06
2023-05-19T06:56:23.262Z,99013.06
2023-05-19T06:57:25.142Z,99018.38
2023-05-19T06:58:27.334Z,99022.03
2023-05-19T06:59:29.100Z,99015.97
2023-05-19T07:00:30.978Z,99017.91
2023-05-19T07:01:32.869Z,99015.38
2023-05-19T07:02:34.661Z,99021.09
2023-05-19T07:03:37.158Z,99020.91
2023-05-19T07:04:39.993Z,99010.56
2023-05-19T07:05:41.797Z,99012.31
2023-05-19T07:06:43.578Z,99021.19
2023-05-19T07:07:45.374Z,99020.94
2023-05-19T07:08:47.146Z,99010.97
2023-05-19T07:09:49.337Z,99011.22
2023-05-19T07:10:51.105Z,99010.13
2023-05-19T07:11:52.924Z,98998.66
2023-05-19T07:12:54.684Z,99008.25
2023-05-19T07:13:56.432Z,99004.81
2023-05-19T07:14:58.184Z,99004.66
2023-05-19T07:15:59.977Z,98999.75
2023-05-19T07:17:01.865Z,98997.06
2023-05-19T07:18:03.769Z,99002.22
2023-05-19T07:19:05.711Z,99000.28
2023-05-19T07:20:10.194Z,99005.03
2023-05-19T07:21:12.043Z,99003.53
2023-05-19T07:22:13.833Z,99009.59
2023-05-19T07:23:17.263Z,99011.72
2023-05-19T07:24:21.475Z,99006.66
2023-05-19T07:25:23.299Z,99008.88
2023-05-19T07:26:25.030Z,99012.66
2023-05-19T07:27:26.908Z,99004.84
2023-05-19T07:28:30.958Z,99010.53
2023-05-19T07:29:32.709Z,99007.47
2023-05-19T07:30:34.861Z,99006.03
2023-05-19T07:31:37.203Z,99012.41
2023-05-19T07:32:38.960Z,99011.88
2023-05-19T07:33:43.849Z,99013.00
2023-05-19T07:34:45.768Z,99016.13
2023-05-19T07:35:47.950Z,99012.66
2023-05-19T07:36:50.024Z,99020.94
2023-05-19T07:37:52.659Z,99015.03
2023-05-19T07:38:54.484Z,99009.03
2023-05-19T07:39:56.272Z,99019.16
2023-05-19T07:40:58.074Z,99013.31
2023-05-19T07:41:59.955Z,99013.50
2023-05-19T07:43:01.716Z,99021.00
2023-05-19T07:44:07.987Z,99015.03
2023-05-19T07:45:10.717Z,99016.03
2023-05-19T07:46:12.552Z,99018.34
2023-05-19T07:47:14.301Z,99025.63
2023-05-19T07:48:18.784Z,99023.66
2023-05-19T07:49:20.942Z,99022.56
2023-05-19T07:50:22.770Z,99028.88
2023-05-19T07:51:24.516Z,99017.84
2023-05-19T07:52:26.941Z,99023.00
2023-05-19T07:53:28.718Z,99021.44
2023-05-19T07:54:30.481Z,99027.47
2023-05-19T07:55:32.307Z,99035.34
2023-05-19T07:56:34.093Z,99022.81
2023-05-19T07:57:35.884Z,99022.38
2023-05-19T07:58:37.624Z,99016.56
2023-05-19T07:59:39.465Z,99022.97
2023-05-19T08:00:46.351Z,99026.34
2023-05-19T08:01:48.150Z,99024.72
2023-05-19T08:02:50.019Z,99029.16
2023-05-19T08:03:51.959Z,99030.34
2023-05-19T08:04:54.340Z,99027.94
2023-05-19T08:05:56.514Z,99028.81
2023-05-19T08:06:58.370Z,99033.97
2023-05-19T08:08:00.141Z,99025.91
2023-05-19T08:09:02.064Z,99028.25
2023-05-19T08:10:04.382Z,99032.28
2023-05-19T08:11:06.779Z,99036.78
2023-05-19T08:12:08.542Z,99034.19
2023-05-19T08:13:10.608Z,99031.06
2023-05-19T08:14:12.664Z,99037.00
2023-05-19T08:15:14.470Z,99031.69
2023-05-19T08:16:16.789Z,99041.06
2023-05-19T08:17:18.660Z,99043.06
2023-05-19T08:18:20.831Z,99037.94
2023-05-19T08:19:22.776Z,99035.78
2023-05-19T08:20:24.752Z,99030.06
2023-05-19T08:21:26.497Z,99021.56
2023-05-19T08:22:31.350Z,99030.53
2023-05-19T08:23:33.746Z,99038.31
2023-05-19T08:24:35.532Z,99004.84
2023-05-19T08:25:37.287Z,99028.41
2023-05-19T08:26:39.151Z,99036.22
2023-05-19T08:27:40.885Z,99040.84
2023-05-19T08:28:42.704Z,99030.81
2023-05-19T08:29:44.600Z,99039.06
2023-05-19T08:30:46.387Z,99028.06
2023-05-19T08:31:48.252Z,99032.56
2023-05-19T08:32:50.094Z,99029.81
2023-05-19T08:33:52.367Z,99022.75
2023-05-19T08:34:54.231Z,99037.22
2023-05-19T08:35:58.269Z,99036.44
2023-05-19T08:37:00.179Z,99040.38
2023-05-19T08:38:01.920Z,99035.97
2023-05-19T08:39:03.749Z,99035.63
2023-05-19T08:40:06.522Z,99036.94
2023-05-19T08:41:08.895Z,99037.16
2023-05-19T08:42:11.624Z,99031.25
2023-05-19T08:43:13.385Z,99033.25
2023-05-19T08:44:16.589Z,99033.13
2023-05-19T08:45:20.002Z,99029.50
2023-05-19T08:46:25.124Z,99025.69
2023-05-19T08:47:28.101Z,99030.34
2023-05-19T08:48:31.421Z,99026.53
2023-05-19T08:49:35.738Z,99019.34
2023-05-19T08:50:42.121Z,99023.50
2023-05-19T08:51:56.248Z,99028.78
2023-05-19T08:53:31.385Z,99033.06
2023-05-19T08:54:44.903Z,99029.56
2023-05-19T08:56:13.758Z,99030.50
2023-05-19T08:57:15.644Z,99025.47
2023-05-19T08:58:20.527Z,99033.47
2023-05-19T08:59:22.905Z,99024.25
2023-05-19T09:00:25.762Z,99027.50
2023-05-19T09:01:28.989Z,99023.97
2023-05-19T09:02:31.072Z,99031.28
2023-05-19T09:03:38.233Z,99020.28
2023-05-19T09:04:42.129Z,99032.22
2023-05-19T09:05:44.055Z,99037.94
2023-05-19T09:06:45.910Z,99020.00
2023-05-19T09:07:48.470Z,99020.88
2023-05-19T09:08:50.265Z,99028.47
2023-05-19T09:09:52.129Z,99032.22
2023-05-19T09:10:53.876Z,99030.06
2023-05-19T09:11:56.104Z,99021.22
2023-05-19T09:12:57.912Z,99026.56
2023-05-19T09:13:59.702Z,99022.97
2023-05-19T09:15:02.855Z,99027.34
2023-05-19T09:16:05.538Z,99020.81
2023-05-19T09:17:07.480Z,99034.31
2023-05-19T09:18:14.185Z,99023.66
2023-05-19T09:19:16.225Z,99021.84
2023-05-19T09:20:18.569Z,99014.03
2023-05-19T09:21:20.649Z,99020.88
2023-05-19T09:22:22.448Z,99023.13
2023-05-19T09:23:25.067Z,99018.78
2023-05-19T09:24:27.612Z,99018.78
2023-05-19T09:25:29.376Z,99024.66
2023-05-19T09:26:42.494Z,99023.81
2023-05-19T09:27:44.235Z,99014.56
2023-05-19T09:28:47.941Z,99025.84
2023-05-19T09:29:51.037Z,99020.66
2023-05-19T09:31:19.480Z,99019.69
2023-05-19T09:32:28.654Z,99021.28
2023-05-19T09:33:32.683Z,99023.09
2023-05-19T09:34:34.458Z,99022.63
2023-05-19T09:35:37.108Z,99018.09
2023-05-19T09:36:41.570Z,99020.84
2023-05-19T09:37:44.224Z,99013.75
2023-05-19T09:38:46.402Z,99017.06
2023-05-19T09:39:52.151Z,99015.00
2023-05-19T09:40:59.795Z,99019.28
2023-05-19T09:42:04.931Z,99017.78
2023-05-19T09:43:08.709Z,99017.91
2023-05-19T09:44:24.027Z,99021.66
2023-05-19T09:45:27.437Z,99019.03
2023-05-19T09:46:30.411Z,99018.66
2023-05-19T09:47:41.536Z,99013.47
2023-05-19T09:48:43.972Z,99016.22
2023-05-19T09:49:48.548Z,99009.88
2023-05-19T09:50:51.850Z,99008.44
2023-05-19T09:51:57.255Z,99010.66
2023-05-19T09:52:59.808Z,99007.03
2023-05-19T09:54:01.648Z,99003.06
2023-05-19T09:55:05.557Z,99007.91
2023-05-19T09:56:08.965Z,99006.25
2023-05-19T09:57:10.796Z,99013.50
2023-05-19T09:58:18.198Z,99010.19
2023-05-19T09:59:24.161Z,99007.19
2023-05-19T10:00:27.370Z,99001.50
2023-05-19T10:01:31.658Z,98999.56
2023-05-19T10:02:33.672Z,99004.25
2023-05-19T10:03:36.899Z,99002.66
2023-05-19T10:04:39.002Z,99002.41
2023-05-19T10:05:42.153Z,99001.66
2023-05-19T10:06:44.637Z,98995.81
2023-05-19T10:07:51.710Z,99000.25
2023-05-19T10:08:57.283Z,98994.44
2023-05-19T10:10:01.829Z,98996.78
2023-05-19T10:11:03.670Z,98999.69
2023-05-19T10:12:08.054Z,98999.38
2023-05-19T10:13:10.555Z,98997.69
2023-05-19T10:14:12.367Z,98991.25
2023-05-19T10:15:15.712Z,98999.25
2023-05-19T10:16:18.538Z,98993.75
2023-05-19T10:17:21.492Z,98995.25
2023-05-19T10:18:23.844Z,98996.19
2023-05-19T10:19:29.811Z,98998.84
2023-05-19T10:20:37.382Z,98995.25
2023-05-19T10:21:40.598Z,99005.34
2023-05-19T10:22:44.690Z,99000.88
2023-05-19T10:23:46.503Z,98982.09
2023-05-19T10:24:48.292Z,98993.75
2023-05-19T10:25:53.753Z,98995.44
2023-05-19T10:26:59.920Z,98991.94
2023-05-19T10:28:07.999Z,98996.72
2023-05-19T10:29:10.823Z,98987.38
2023-05-19T10:30:20.736Z,98986.59
2023-05-19T10:31:24.556Z,98986.59
2023-05-19T10:32:31.193Z,98983.31
2023-05-19T10:34:00.549Z,98978.81
2023-05-19T10:35:28.715Z,98983.75
2023-05-19T10:36:48.000Z,98983.88
2023-05-19T10:38:17.204Z,98987.47
2023-05-19T10:39:37.646Z,98978.81
2023-05-19T10:40:52.661Z,98974.88
2023-05-19T10:41:54.342Z,98982.84
2023-05-19T10:43:14.254Z,98978.38
2023-05-19T10:44:40.414Z,98979.63
2023-05-19T10:45:49.520Z,98973.44
2023-05-19T10:46:51.373Z,98972.81
2023-05-19T10:47:54.750Z,98967.34
2023-05-19T10:48:56.725Z,98971.22
2023-05-19T10:50:01.222Z,98967.75
2023-05-19T10:51:03.849Z,98974.53
2023-05-19T10:52:20.339Z,98973.47
2023-05-19T10:53:22.998Z,98980.00
2023-05-19T10:54:43.617Z,98975.47
2023-05-19T10:55:53.264Z,98976.75
2023-05-19T10:56:58.064Z,98974.97
2023-05-19T10:58:00.650Z,98977.03
2023-05-19T10:59:03.653Z,98991.25
2023-05-19T11:00:29.646Z,98994.22
2023-05-19T11:01:33.789Z,99022.78
2023-05-19T11:02:45.134Z,99041.53
2023-05-19T11:03:55.059Z,99044.91
2023-05-19T11:05:13.017Z,99030.81
2023-05-19T11:06:41.422Z,99025.53
2023-05-19T11:08:06.212Z,99022.84
2023-05-19T11:09:17.432Z,99042.72
2023-05-19T11:10:23.836Z,99040.28
2023-05-19T11:11:26.944Z,99043.50
2023-05-19T11:12:28.939Z,99042.94
2023-05-19T11:13:31.473Z,99041.03
2023-05-19T11:14:34.928Z,99053.78
2023-05-19T11:15:37.500Z,99034.31
2023-05-19T11:16:45.921Z,99019.06
2023-05-19T11:17:50.652Z,99010.19
2023-05-19T11:18:54.670Z,99009.63
2023-05-19T11:19:57.853Z,98996.75
2023-05-19T11:21:02.583Z,98991.63
2023-05-19T11:22:12.733Z,99000.50
2023-05-19T11:23:20.404Z,98997.31
2023-05-19T11:24:44.659Z,98991.81
2023-05-19T11:25:51.663Z,98996.16
2023-05-19T11:26:54.950Z,98988.34
2023-05-19T11:27:56.931Z,98990.53
2023-05-19T11:28:58.730Z,98983.22
2023-05-19T11:30:20.217Z,98989.75
2023-05-19T11:31:23.209Z,98989.78
2023-05-19T11:32:36.086Z,98980.66
2023-05-19T11:33:38.131Z,98990.84
2023-05-19T11:34:40.580Z,98991.63
2023-05-19T11:35:43.780Z,98989.78
2023-05-19T11:36:46.205Z,98983.88
2023-05-19T11:37:50.714Z,98987.88
2023-05-19T11:38:52.850Z,98985.38
2023-05-19T11:39:54.830Z,98985.72
2023-05-19T11:40:57.073Z,98994.78
2023-05-19T11:41:59.139Z,98989.75
2023-05-19T11:43:02.163Z,98978.66
2023-05-19T11:44:03.929Z,98986.97
2023-05-19T11:45:06.552Z,98983.56
2023-05-19T11:46:12.844Z,98989.41
2023-05-19T11:47:15.920Z,98982.41
2023-05-19T11:48:21.602Z,98976.59
2023-05-19T11:49:23.472Z,98992.97
2023-05-19T11:50:26.001Z,98979.63
2023-05-19T11:51:27.875Z,98984.50
2023-05-19T11:52:29.790Z,98982.34
2023-05-19T11:53:33.374Z,98983.97
2023-05-19T11:54:37.459Z,98977.78
2023-05-19T11:55:46.954Z,98989.00
2023-05-19T11:56:49.012Z,98984.34
2023-05-19T11:58:05.478Z,98982.09
2023-05-19T11:59:08.483Z,98978.47
2023-05-19T12:00:12.612Z,98978.34
2023-05-19T12:01:14.520Z,98975.75
2023-05-19T12:02:19.492Z,98973.75
2023-05-19T12:03:23.035Z,98963.53
2023-05-19T12:04:24.954Z,98969.72
2023-05-19T12:05:28.439Z,98975.41
2023-05-19T12:06:30.385Z,98973.91
2023-05-19T12:07:32.172Z,98967.84
2023-05-19T12:08:35.617Z,98973.97
2023-05-19T12:09:37.446Z,98971.25
2023-05-19T12:10:40.661Z,98964.38
2023-05-19T12:11:42.472Z,98962.91
2023-05-19T12:12:45.376Z,98970.34
2023-05-19T12:13:51.073Z,98957.81
2023-05-19T12:14:53.765Z,98959.59
2023-05-19T12:16:00.023Z,98960.81
2023-05-19T12:17:21.344Z,98960.75
2023-05-19T12:18:23.160Z,98953.22
2023-05-19T12:19:26.132Z,98962.78
2023-05-19T12:20:32.011Z,98952.69
2023-05-19T12:21:34.547Z,98952.53
2023-05-19T12:22:37.069Z,98953.84
2023-05-19T12:23:39.333Z,98959.47
2023-05-19T12:24:43.119Z,98951.94
2023-05-19T12:25:46.589Z,98946.75
2023-05-19T12:26:50.426Z,98947.81
2023-05-19T12:27:56.164Z,98943.88
2023-05-19T12:28:59.000Z,98948.97
2023-05-19T12:30:00.761Z,98951.19
2023-05-19T12:31:02.974Z,98947.28
2023-05-19T12:32:04.997Z,98941.84
2023-05-19T12:33:08.704Z,98951.31
2023-05-19T12:34:13.327Z,98942.94